sensor_id;sensor_type;location;lat;lon;timestamp;P1;durP1;ratioP1;P2;durP2;ratioP2
68608;SDS011;55581;46.718;7.690;2024-01-15T00:01:42;24.30;;;11.03;;
68608;SDS011;55581;46.718;7.690;2024-01-15T00:04:09;20.00;;;9.23;;
68608;SDS011;55581;46.718;7.690;2024-01-15T00:06:37;18.02;;;8.80;;
68608;SDS011;55581;46.718;7.690;2024-01-15T00:09:04;22.20;;;9.53;;
68608;SDS011;55581;46.718;7.690;2024-01-15T00:11:31;24.70;;;10.38;;
68608;SDS011;55581;46.718;7.690;2024-01-15T00:13:57;18.27;;;9.27;;
68608;SDS011;55581;46.718;7.690;2024-01-15T00:16:22;17.08;;;9.40;;
68608;SDS011;55581;46.718;7.690;2024-01-15T00:18:47;20.80;;;9.60;;
68608;SDS011;55581;46.718;7.690;2024-01-15T00:21:13;24.27;;;10.47;;
68608;SDS011;55581;46.718;7.690;2024-01-15T00:23:42;21.77;;;10.97;;
68608;SDS011;55581;46.718;7.690;2024-01-15T00:26:09;25.02;;;11.57;;
68608;SDS011;55581;46.718;7.690;2024-01-15T00:28:35;24.10;;;11.87;;
68608;SDS011;55581;46.718;7.690;2024-01-15T00:31:06;24.47;;;11.57;;
68608;SDS011;55581;46.718;7.690;2024-01-15T00:33:32;21.15;;;10.18;;
68608;SDS011;55581;46.718;7.690;2024-01-15T00:35:59;20.40;;;9.43;;
68608;SDS011;55581;46.718;7.690;2024-01-15T00:38:25;18.47;;;9.17;;
68608;SDS011;55581;46.718;7.690;2024-01-15T00:40:50;17.90;;;8.77;;
68608;SDS011;55581;46.718;7.690;2024-01-15T00:43:16;21.85;;;9.52;;
68608;SDS011;55581;46.718;7.690;2024-01-15T00:45:43;21.30;;;10.13;;
68608;SDS011;55581;46.718;7.690;2024-01-15T00:48:08;17.42;;;7.90;;
68608;SDS011;55581;46.718;7.690;2024-01-15T00:50:34;18.57;;;8.40;;
68608;SDS011;55581;46.718;7.690;2024-01-15T00:52:59;24.17;;;10.73;;
68608;SDS011;55581;46.718;7.690;2024-01-15T00:55:24;22.73;;;11.50;;
68608;SDS011;55581;46.718;7.690;2024-01-15T00:57:50;21.70;;;9.97;;
68608;SDS011;55581;46.718;7.690;2024-01-15T01:00:15;16.37;;;7.73;;
68608;SDS011;55581;46.718;7.690;2024-01-15T01:02:41;20.33;;;9.27;;
68608;SDS011;55581;46.718;7.690;2024-01-15T01:05:06;15.27;;;7.13;;
68608;SDS011;55581;46.718;7.690;2024-01-15T01:07:35;15.57;;;6.97;;
68608;SDS011;55581;46.718;7.690;2024-01-15T01:10:00;15.95;;;7.22;;
68608;SDS011;55581;46.718;7.690;2024-01-15T01:12:28;18.75;;;8.18;;
68608;SDS011;55581;46.718;7.690;2024-01-15T01:14:54;17.63;;;7.73;;
68608;SDS011;55581;46.718;7.690;2024-01-15T01:17:20;15.50;;;7.40;;
68608;SDS011;55581;46.718;7.690;2024-01-15T01:19:45;20.13;;;8.23;;
68608;SDS011;55581;46.718;7.690;2024-01-15T01:22:11;19.17;;;8.43;;
68608;SDS011;55581;46.718;7.690;2024-01-15T01:24:38;17.05;;;6.38;;
68608;SDS011;55581;46.718;7.690;2024-01-15T01:27:07;15.38;;;6.43;;
68608;SDS011;55581;46.718;7.690;2024-01-15T01:29:32;13.83;;;6.87;;
68608;SDS011;55581;46.718;7.690;2024-01-15T01:31:58;14.90;;;7.00;;
68608;SDS011;55581;46.718;7.690;2024-01-15T01:34:25;14.68;;;6.72;;
68608;SDS011;55581;46.718;7.690;2024-01-15T01:36:51;15.90;;;6.93;;
68608;SDS011;55581;46.718;7.690;2024-01-15T01:39:16;15.77;;;7.03;;
68608;SDS011;55581;46.718;7.690;2024-01-15T01:41:42;16.90;;;6.07;;
68608;SDS011;55581;46.718;7.690;2024-01-15T01:44:08;19.08;;;8.00;;
68608;SDS011;55581;46.718;7.690;2024-01-15T01:46:33;18.00;;;7.87;;
68608;SDS011;55581;46.718;7.690;2024-01-15T01:49:04;20.85;;;8.32;;
68608;SDS011;55581;46.718;7.690;2024-01-15T01:51:31;17.50;;;7.28;;
68608;SDS011;55581;46.718;7.690;2024-01-15T01:54:00;21.07;;;9.73;;
68608;SDS011;55581;46.718;7.690;2024-01-15T01:56:26;20.67;;;8.93;;
68608;SDS011;55581;46.718;7.690;2024-01-15T01:58:52;21.42;;;9.65;;
68608;SDS011;55581;46.718;7.690;2024-01-15T02:01:17;21.47;;;9.57;;
68608;SDS011;55581;46.718;7.690;2024-01-15T02:03:43;22.23;;;10.13;;
68608;SDS011;55581;46.718;7.690;2024-01-15T02:06:09;23.73;;;9.95;;
68608;SDS011;55581;46.718;7.690;2024-01-15T02:08:41;22.30;;;10.30;;
68608;SDS011;55581;46.718;7.690;2024-01-15T02:11:08;21.23;;;9.43;;
68608;SDS011;55581;46.718;7.690;2024-01-15T02:13:34;19.10;;;9.35;;
68608;SDS011;55581;46.718;7.690;2024-01-15T02:16:01;24.70;;;10.33;;
68608;SDS011;55581;46.718;7.690;2024-01-15T02:18:27;22.25;;;10.60;;
68608;SDS011;55581;46.718;7.690;2024-01-15T02:20:52;21.50;;;10.27;;
68608;SDS011;55581;46.718;7.690;2024-01-15T02:23:17;22.37;;;11.63;;
68608;SDS011;55581;46.718;7.690;2024-01-15T02:25:44;21.57;;;10.47;;
68608;SDS011;55581;46.718;7.690;2024-01-15T02:28:16;24.38;;;9.77;;
68608;SDS011;55581;46.718;7.690;2024-01-15T02:30:44;19.75;;;8.70;;
68608;SDS011;55581;46.718;7.690;2024-01-15T02:33:10;16.13;;;6.93;;
68608;SDS011;55581;46.718;7.690;2024-01-15T02:35:38;12.68;;;5.40;;
68608;SDS011;55581;46.718;7.690;2024-01-15T02:38:04;7.33;;;3.03;;
68608;SDS011;55581;46.718;7.690;2024-01-15T02:40:30;6.53;;;2.15;;
68608;SDS011;55581;46.718;7.690;2024-01-15T02:42:56;6.13;;;1.58;;
68608;SDS011;55581;46.718;7.690;2024-01-15T02:45:24;4.50;;;1.10;;
68608;SDS011;55581;46.718;7.690;2024-01-15T02:47:50;5.43;;;1.33;;
68608;SDS011;55581;46.718;7.690;2024-01-15T02:50:18;3.90;;;0.83;;
68608;SDS011;55581;46.718;7.690;2024-01-15T02:52:45;4.60;;;1.70;;
68608;SDS011;55581;46.718;7.690;2024-01-15T02:55:11;3.87;;;0.83;;
68608;SDS011;55581;46.718;7.690;2024-01-15T02:57:38;3.25;;;0.73;;
68608;SDS011;55581;46.718;7.690;2024-01-15T03:00:04;3.60;;;0.93;;
68608;SDS011;55581;46.718;7.690;2024-01-15T03:02:30;3.60;;;1.20;;
68608;SDS011;55581;46.718;7.690;2024-01-15T03:05:00;7.93;;;2.63;;
68608;SDS011;55581;46.718;7.690;2024-01-15T03:07:27;10.27;;;4.07;;
68608;SDS011;55581;46.718;7.690;2024-01-15T03:09:53;8.77;;;4.15;;
68608;SDS011;55581;46.718;7.690;2024-01-15T03:12:18;9.33;;;3.80;;
68608;SDS011;55581;46.718;7.690;2024-01-15T03:14:46;9.15;;;4.80;;
68608;SDS011;55581;46.718;7.690;2024-01-15T03:17:12;12.03;;;5.27;;
68608;SDS011;55581;46.718;7.690;2024-01-15T03:19:37;7.00;;;2.73;;
68608;SDS011;55581;46.718;7.690;2024-01-15T03:22:03;6.15;;;2.60;;
68608;SDS011;55581;46.718;7.690;2024-01-15T03:24:28;7.53;;;3.30;;
68608;SDS011;55581;46.718;7.690;2024-01-15T03:26:54;9.88;;;4.10;;
68608;SDS011;55581;46.718;7.690;2024-01-15T03:29:20;10.10;;;3.93;;
68608;SDS011;55581;46.718;7.690;2024-01-15T03:31:46;10.75;;;4.18;;
68608;SDS011;55581;46.718;7.690;2024-01-15T03:34:12;10.03;;;4.50;;
68608;SDS011;55581;46.718;7.690;2024-01-15T03:36:37;9.73;;;3.83;;
68608;SDS011;55581;46.718;7.690;2024-01-15T03:39:03;10.20;;;4.53;;
68608;SDS011;55581;46.718;7.690;2024-01-15T03:41:28;9.85;;;4.32;;
68608;SDS011;55581;46.718;7.690;2024-01-15T03:43:53;11.13;;;4.27;;
68608;SDS011;55581;46.718;7.690;2024-01-15T03:46:19;9.13;;;4.27;;
68608;SDS011;55581;46.718;7.690;2024-01-15T03:48:47;11.27;;;4.95;;
68608;SDS011;55581;46.718;7.690;2024-01-15T03:51:12;9.93;;;4.23;;
68608;SDS011;55581;46.718;7.690;2024-01-15T03:53:40;10.20;;;4.63;;
68608;SDS011;55581;46.718;7.690;2024-01-15T03:56:05;10.10;;;5.17;;
68608;SDS011;55581;46.718;7.690;2024-01-15T03:58:33;10.63;;;5.10;;
68608;SDS011;55581;46.718;7.690;2024-01-15T04:00:58;10.70;;;5.13;;
68608;SDS011;55581;46.718;7.690;2024-01-15T04:03:24;10.93;;;5.20;;
68608;SDS011;55581;46.718;7.690;2024-01-15T04:05:49;10.63;;;5.37;;
68608;SDS011;55581;46.718;7.690;2024-01-15T04:08:14;10.57;;;4.80;;
68608;SDS011;55581;46.718;7.690;2024-01-15T04:10:40;11.60;;;5.05;;
68608;SDS011;55581;46.718;7.690;2024-01-15T04:13:05;10.23;;;4.90;;
68608;SDS011;55581;46.718;7.690;2024-01-15T04:15:31;11.63;;;5.10;;
68608;SDS011;55581;46.718;7.690;2024-01-15T04:17:56;9.43;;;4.03;;
68608;SDS011;55581;46.718;7.690;2024-01-15T04:20:21;9.13;;;4.80;;
68608;SDS011;55581;46.718;7.690;2024-01-15T04:22:49;10.87;;;4.90;;
68608;SDS011;55581;46.718;7.690;2024-01-15T04:25:15;11.83;;;5.13;;
68608;SDS011;55581;46.718;7.690;2024-01-15T04:27:42;12.13;;;5.93;;
68608;SDS011;55581;46.718;7.690;2024-01-15T04:30:08;11.40;;;5.07;;
68608;SDS011;55581;46.718;7.690;2024-01-15T04:32:33;10.53;;;4.63;;
68608;SDS011;55581;46.718;7.690;2024-01-15T04:34:59;8.97;;;4.37;;
68608;SDS011;55581;46.718;7.690;2024-01-15T04:37:24;12.77;;;5.47;;
68608;SDS011;55581;46.718;7.690;2024-01-15T04:39:49;10.57;;;4.57;;
68608;SDS011;55581;46.718;7.690;2024-01-15T04:42:17;13.50;;;5.57;;
68608;SDS011;55581;46.718;7.690;2024-01-15T04:44:43;11.33;;;4.87;;
68608;SDS011;55581;46.718;7.690;2024-01-15T04:47:08;10.63;;;5.17;;
68608;SDS011;55581;46.718;7.690;2024-01-15T04:49:34;10.43;;;5.07;;
68608;SDS011;55581;46.718;7.690;2024-01-15T04:51:59;11.43;;;5.37;;
68608;SDS011;55581;46.718;7.690;2024-01-15T04:54:27;10.53;;;4.17;;
68608;SDS011;55581;46.718;7.690;2024-01-15T04:56:52;8.97;;;4.63;;
68608;SDS011;55581;46.718;7.690;2024-01-15T04:59:18;8.88;;;3.95;;
68608;SDS011;55581;46.718;7.690;2024-01-15T05:01:43;10.60;;;4.87;;
68608;SDS011;55581;46.718;7.690;2024-01-15T05:04:08;10.07;;;4.13;;
68608;SDS011;55581;46.718;7.690;2024-01-15T05:06:34;10.27;;;5.07;;
68608;SDS011;55581;46.718;7.690;2024-01-15T05:08:59;11.30;;;5.03;;
68608;SDS011;55581;46.718;7.690;2024-01-15T05:11:24;9.35;;;4.57;;
68608;SDS011;55581;46.718;7.690;2024-01-15T05:13:51;10.53;;;4.70;;
68608;SDS011;55581;46.718;7.690;2024-01-15T05:16:16;11.63;;;4.93;;
68608;SDS011;55581;46.718;7.690;2024-01-15T05:18:42;10.60;;;4.93;;
68608;SDS011;55581;46.718;7.690;2024-01-15T05:21:10;8.80;;;4.20;;
68608;SDS011;55581;46.718;7.690;2024-01-15T05:23:35;9.23;;;3.40;;
68608;SDS011;55581;46.718;7.690;2024-01-15T05:26:03;10.35;;;4.53;;
68608;SDS011;55581;46.718;7.690;2024-01-15T05:28:28;9.43;;;3.80;;
68608;SDS011;55581;46.718;7.690;2024-01-15T05:30:54;7.93;;;3.80;;
68608;SDS011;55581;46.718;7.690;2024-01-15T05:33:20;10.07;;;4.10;;
68608;SDS011;55581;46.718;7.690;2024-01-15T05:35:47;8.55;;;3.97;;
68608;SDS011;55581;46.718;7.690;2024-01-15T05:38:12;10.07;;;3.47;;
68608;SDS011;55581;46.718;7.690;2024-01-15T05:40:38;8.43;;;3.72;;
68608;SDS011;55581;46.718;7.690;2024-01-15T05:43:03;9.03;;;3.10;;
68608;SDS011;55581;46.718;7.690;2024-01-15T05:45:29;8.00;;;3.23;;
68608;SDS011;55581;46.718;7.690;2024-01-15T05:47:55;9.05;;;3.80;;
68608;SDS011;55581;46.718;7.690;2024-01-15T05:50:21;7.33;;;3.27;;
68608;SDS011;55581;46.718;7.690;2024-01-15T05:52:49;7.75;;;2.90;;
68608;SDS011;55581;46.718;7.690;2024-01-15T05:55:14;8.20;;;3.20;;
68608;SDS011;55581;46.718;7.690;2024-01-15T05:57:42;10.45;;;3.00;;
68608;SDS011;55581;46.718;7.690;2024-01-15T06:00:10;8.35;;;3.33;;
68608;SDS011;55581;46.718;7.690;2024-01-15T06:02:39;6.97;;;2.63;;
68608;SDS011;55581;46.718;7.690;2024-01-15T06:05:05;7.33;;;2.63;;
68608;SDS011;55581;46.718;7.690;2024-01-15T06:07:31;8.27;;;3.25;;
68608;SDS011;55581;46.718;7.690;2024-01-15T06:09:56;7.10;;;2.78;;
68608;SDS011;55581;46.718;7.690;2024-01-15T06:12:22;6.00;;;2.33;;
68608;SDS011;55581;46.718;7.690;2024-01-15T06:14:47;7.73;;;3.10;;
68608;SDS011;55581;46.718;7.690;2024-01-15T06:17:13;8.75;;;3.05;;
68608;SDS011;55581;46.718;7.690;2024-01-15T06:19:38;6.17;;;2.40;;
68608;SDS011;55581;46.718;7.690;2024-01-15T06:22:04;8.50;;;2.50;;
68608;SDS011;55581;46.718;7.690;2024-01-15T06:24:32;6.07;;;2.20;;
68608;SDS011;55581;46.718;7.690;2024-01-15T06:26:57;6.53;;;2.37;;
68608;SDS011;55581;46.718;7.690;2024-01-15T06:29:25;6.77;;;2.20;;
68608;SDS011;55581;46.718;7.690;2024-01-15T06:31:51;8.88;;;3.08;;
68608;SDS011;55581;46.718;7.690;2024-01-15T06:34:16;6.67;;;2.27;;
68608;SDS011;55581;46.718;7.690;2024-01-15T06:36:44;5.32;;;1.90;;
68608;SDS011;55581;46.718;7.690;2024-01-15T06:39:10;5.90;;;1.90;;
68608;SDS011;55581;46.718;7.690;2024-01-15T06:41:38;6.17;;;2.30;;
68608;SDS011;55581;46.718;7.690;2024-01-15T06:44:11;5.05;;;1.73;;
68608;SDS011;55581;46.718;7.690;2024-01-15T06:46:43;6.38;;;1.85;;
68608;SDS011;55581;46.718;7.690;2024-01-15T06:49:09;7.40;;;3.35;;
68608;SDS011;55581;46.718;7.690;2024-01-15T06:51:35;7.87;;;1.80;;
68608;SDS011;55581;46.718;7.690;2024-01-15T06:54:00;5.25;;;1.90;;
68608;SDS011;55581;46.718;7.690;2024-01-15T06:56:26;7.33;;;1.80;;
68608;SDS011;55581;46.718;7.690;2024-01-15T06:58:51;4.95;;;1.70;;
68608;SDS011;55581;46.718;7.690;2024-01-15T07:01:16;5.60;;;1.37;;
68608;SDS011;55581;46.718;7.690;2024-01-15T07:03:42;6.17;;;2.00;;
68608;SDS011;55581;46.718;7.690;2024-01-15T07:06:07;5.13;;;1.30;;
68608;SDS011;55581;46.718;7.690;2024-01-15T07:08:33;5.00;;;1.70;;
68608;SDS011;55581;46.718;7.690;2024-01-15T07:10:58;7.17;;;2.30;;
68608;SDS011;55581;46.718;7.690;2024-01-15T07:13:23;4.40;;;1.30;;
68608;SDS011;55581;46.718;7.690;2024-01-15T07:15:51;6.32;;;2.40;;
68608;SDS011;55581;46.718;7.690;2024-01-15T07:18:19;7.13;;;2.23;;
68608;SDS011;55581;46.718;7.690;2024-01-15T07:20:45;7.13;;;2.00;;
68608;SDS011;55581;46.718;7.690;2024-01-15T07:23:10;7.57;;;2.57;;
68608;SDS011;55581;46.718;7.690;2024-01-15T07:25:36;8.37;;;2.27;;
68608;SDS011;55581;46.718;7.690;2024-01-15T07:28:01;8.03;;;2.03;;
68608;SDS011;55581;46.718;7.690;2024-01-15T07:30:28;4.78;;;1.42;;
68608;SDS011;55581;46.718;7.690;2024-01-15T07:32:54;3.70;;;1.20;;
68608;SDS011;55581;46.718;7.690;2024-01-15T07:35:22;3.65;;;0.90;;
68608;SDS011;55581;46.718;7.690;2024-01-15T07:37:47;4.83;;;1.10;;
68608;SDS011;55581;46.718;7.690;2024-01-15T07:40:12;4.35;;;1.10;;
68608;SDS011;55581;46.718;7.690;2024-01-15T07:42:38;3.97;;;1.27;;
68608;SDS011;55581;46.718;7.690;2024-01-15T07:45:04;4.00;;;1.43;;
68608;SDS011;55581;46.718;7.690;2024-01-15T07:47:32;4.40;;;1.17;;
68608;SDS011;55581;46.718;7.690;2024-01-15T07:49:57;4.87;;;1.73;;
68608;SDS011;55581;46.718;7.690;2024-01-15T07:52:23;3.87;;;1.07;;
68608;SDS011;55581;46.718;7.690;2024-01-15T07:54:48;4.18;;;1.13;;
68608;SDS011;55581;46.718;7.690;2024-01-15T07:57:14;4.27;;;1.13;;
68608;SDS011;55581;46.718;7.690;2024-01-15T07:59:39;4.33;;;1.27;;
68608;SDS011;55581;46.718;7.690;2024-01-15T08:02:05;5.07;;;1.27;;
68608;SDS011;55581;46.718;7.690;2024-01-15T08:04:30;3.97;;;1.10;;
68608;SDS011;55581;46.718;7.690;2024-01-15T08:06:56;4.90;;;1.83;;
68608;SDS011;55581;46.718;7.690;2024-01-15T08:09:22;7.63;;;2.72;;
68608;SDS011;55581;46.718;7.690;2024-01-15T08:11:47;5.37;;;2.03;;
68608;SDS011;55581;46.718;7.690;2024-01-15T08:14:14;5.22;;;1.90;;
68608;SDS011;55581;46.718;7.690;2024-01-15T08:16:39;5.27;;;1.90;;
68608;SDS011;55581;46.718;7.690;2024-01-15T08:19:05;5.95;;;1.20;;
68608;SDS011;55581;46.718;7.690;2024-01-15T08:21:35;4.40;;;1.25;;
68608;SDS011;55581;46.718;7.690;2024-01-15T08:24:01;8.10;;;1.80;;
68608;SDS011;55581;46.718;7.690;2024-01-15T08:26:27;4.30;;;1.10;;
68608;SDS011;55581;46.718;7.690;2024-01-15T08:28:53;4.90;;;1.60;;
68608;SDS011;55581;46.718;7.690;2024-01-15T08:31:19;5.07;;;1.47;;
68608;SDS011;55581;46.718;7.690;2024-01-15T08:33:47;5.25;;;1.60;;
68608;SDS011;55581;46.718;7.690;2024-01-15T08:36:12;6.37;;;2.37;;
68608;SDS011;55581;46.718;7.690;2024-01-15T08:38:38;4.20;;;1.15;;
68608;SDS011;55581;46.718;7.690;2024-01-15T08:41:04;3.17;;;1.00;;
68608;SDS011;55581;46.718;7.690;2024-01-15T08:43:29;5.45;;;1.67;;
68608;SDS011;55581;46.718;7.690;2024-01-15T08:45:56;6.38;;;2.50;;
68608;SDS011;55581;46.718;7.690;2024-01-15T08:48:24;6.88;;;2.22;;
68608;SDS011;55581;46.718;7.690;2024-01-15T08:50:52;4.53;;;1.53;;
68608;SDS011;55581;46.718;7.690;2024-01-15T08:53:17;7.20;;;2.67;;
68608;SDS011;55581;46.718;7.690;2024-01-15T08:55:43;6.47;;;2.47;;
68608;SDS011;55581;46.718;7.690;2024-01-15T08:58:09;6.90;;;2.03;;
68608;SDS011;55581;46.718;7.690;2024-01-15T09:00:38;5.97;;;2.08;;
68608;SDS011;55581;46.718;7.690;2024-01-15T09:03:06;4.97;;;1.40;;
68608;SDS011;55581;46.718;7.690;2024-01-15T09:05:33;3.92;;;1.10;;
68608;SDS011;55581;46.718;7.690;2024-01-15T09:08:03;6.35;;;1.20;;
68608;SDS011;55581;46.718;7.690;2024-01-15T09:10:31;7.93;;;1.63;;
68608;SDS011;55581;46.718;7.690;2024-01-15T09:12:57;5.30;;;1.30;;
68608;SDS011;55581;46.718;7.690;2024-01-15T09:15:22;4.20;;;1.33;;
68608;SDS011;55581;46.718;7.690;2024-01-15T09:17:48;4.03;;;1.30;;
68608;SDS011;55581;46.718;7.690;2024-01-15T09:20:13;4.50;;;1.50;;
68608;SDS011;55581;46.718;7.690;2024-01-15T09:22:39;4.60;;;1.35;;
68608;SDS011;55581;46.718;7.690;2024-01-15T09:25:08;4.95;;;1.90;;
68608;SDS011;55581;46.718;7.690;2024-01-15T09:27:36;3.73;;;1.07;;
68608;SDS011;55581;46.718;7.690;2024-01-15T09:30:04;5.15;;;1.52;;
68608;SDS011;55581;46.718;7.690;2024-01-15T09:32:30;4.07;;;1.10;;
68608;SDS011;55581;46.718;7.690;2024-01-15T09:34:56;6.22;;;2.50;;
68608;SDS011;55581;46.718;7.690;2024-01-15T09:37:24;7.73;;;2.30;;
68608;SDS011;55581;46.718;7.690;2024-01-15T09:39:51;6.32;;;2.45;;
68608;SDS011;55581;46.718;7.690;2024-01-15T09:42:20;7.73;;;2.70;;
68608;SDS011;55581;46.718;7.690;2024-01-15T09:44:48;7.47;;;2.78;;
68608;SDS011;55581;46.718;7.690;2024-01-15T09:47:14;6.47;;;2.63;;
68608;SDS011;55581;46.718;7.690;2024-01-15T09:49:41;4.87;;;1.90;;
68608;SDS011;55581;46.718;7.690;2024-01-15T09:52:07;12.38;;;2.88;;
68608;SDS011;55581;46.718;7.690;2024-01-15T09:54:33;6.45;;;2.15;;
68608;SDS011;55581;46.718;7.690;2024-01-15T09:56:59;7.20;;;2.63;;
68608;SDS011;55581;46.718;7.690;2024-01-15T09:59:28;5.90;;;2.20;;
68608;SDS011;55581;46.718;7.690;2024-01-15T10:01:54;6.43;;;2.47;;
68608;SDS011;55581;46.718;7.690;2024-01-15T10:04:21;6.13;;;2.42;;
68608;SDS011;55581;46.718;7.690;2024-01-15T10:06:48;5.68;;;2.10;;
68608;SDS011;55581;46.718;7.690;2024-01-15T10:09:17;5.88;;;2.42;;
68608;SDS011;55581;46.718;7.690;2024-01-15T10:11:43;6.13;;;2.40;;
68608;SDS011;55581;46.718;7.690;2024-01-15T10:14:09;6.60;;;2.67;;
68608;SDS011;55581;46.718;7.690;2024-01-15T10:16:41;6.22;;;2.70;;
68608;SDS011;55581;46.718;7.690;2024-01-15T10:19:09;6.18;;;2.08;;
68608;SDS011;55581;46.718;7.690;2024-01-15T10:21:35;6.43;;;1.83;;
68608;SDS011;55581;46.718;7.690;2024-01-15T10:24:01;5.07;;;1.70;;
68608;SDS011;55581;46.718;7.690;2024-01-15T10:26:27;7.28;;;1.95;;
68608;SDS011;55581;46.718;7.690;2024-01-15T10:28:53;4.70;;;1.47;;
68608;SDS011;55581;46.718;7.690;2024-01-15T10:31:18;5.30;;;1.60;;
68608;SDS011;55581;46.718;7.690;2024-01-15T10:33:50;4.65;;;1.45;;
68608;SDS011;55581;46.718;7.690;2024-01-15T10:36:16;6.15;;;1.92;;
68608;SDS011;55581;46.718;7.690;2024-01-15T10:38:46;4.38;;;1.40;;
68608;SDS011;55581;46.718;7.690;2024-01-15T10:41:11;6.28;;;1.90;;
68608;SDS011;55581;46.718;7.690;2024-01-15T10:43:37;5.27;;;1.77;;
68608;SDS011;55581;46.718;7.690;2024-01-15T10:46:05;5.88;;;1.50;;
68608;SDS011;55581;46.718;7.690;2024-01-15T10:48:32;5.10;;;1.67;;
68608;SDS011;55581;46.718;7.690;2024-01-15T10:51:01;5.35;;;1.48;;
68608;SDS011;55581;46.718;7.690;2024-01-15T10:53:35;5.28;;;1.58;;
68608;SDS011;55581;46.718;7.690;2024-01-15T10:56:02;6.13;;;1.70;;
68608;SDS011;55581;46.718;7.690;2024-01-15T10:58:29;6.10;;;1.65;;
68608;SDS011;55581;46.718;7.690;2024-01-15T11:00:59;5.57;;;1.67;;
68608;SDS011;55581;46.718;7.690;2024-01-15T11:03:24;5.57;;;1.80;;
68608;SDS011;55581;46.718;7.690;2024-01-15T11:05:50;4.50;;;1.60;;
68608;SDS011;55581;46.718;7.690;2024-01-15T11:08:16;4.60;;;1.60;;
68608;SDS011;55581;46.718;7.690;2024-01-15T11:10:44;4.22;;;1.50;;
68608;SDS011;55581;46.718;7.690;2024-01-15T11:16:02;6.80;;;1.70;;
68608;SDS011;55581;46.718;7.690;2024-01-15T11:18:29;5.32;;;1.88;;
68608;SDS011;55581;46.718;7.690;2024-01-15T11:23:50;4.85;;;1.40;;
68608;SDS011;55581;46.718;7.690;2024-01-15T11:29:10;5.00;;;1.63;;
68608;SDS011;55581;46.718;7.690;2024-01-15T11:34:20;7.75;;;1.85;;
68608;SDS011;55581;46.718;7.690;2024-01-15T11:37:06;5.85;;;2.10;;
68608;SDS011;55581;46.718;7.690;2024-01-15T11:39:40;5.70;;;1.60;;
68608;SDS011;55581;46.718;7.690;2024-01-15T11:42:10;6.47;;;2.17;;
68608;SDS011;55581;46.718;7.690;2024-01-15T11:44:37;5.82;;;1.98;;
68608;SDS011;55581;46.718;7.690;2024-01-15T11:47:04;6.00;;;1.75;;
68608;SDS011;55581;46.718;7.690;2024-01-15T11:52:18;5.65;;;2.17;;
68608;SDS011;55581;46.718;7.690;2024-01-15T11:54:48;6.67;;;2.13;;
68608;SDS011;55581;46.718;7.690;2024-01-15T12:00:21;5.95;;;1.90;;
68608;SDS011;55581;46.718;7.690;2024-01-15T12:02:47;4.45;;;1.70;;
68608;SDS011;55581;46.718;7.690;2024-01-15T12:05:15;5.00;;;1.90;;
68608;SDS011;55581;46.718;7.690;2024-01-15T12:07:43;6.90;;;2.43;;
68608;SDS011;55581;46.718;7.690;2024-01-15T12:10:13;6.55;;;2.15;;
68608;SDS011;55581;46.718;7.690;2024-01-15T12:15:11;4.85;;;1.70;;
68608;SDS011;55581;46.718;7.690;2024-01-15T12:17:36;8.87;;;2.37;;
68608;SDS011;55581;46.718;7.690;2024-01-15T12:20:03;5.07;;;2.23;;
68608;SDS011;55581;46.718;7.690;2024-01-15T12:22:29;7.03;;;2.70;;
68608;SDS011;55581;46.718;7.690;2024-01-15T12:24:55;8.33;;;2.40;;
68608;SDS011;55581;46.718;7.690;2024-01-15T12:27:20;5.80;;;2.20;;
68608;SDS011;55581;46.718;7.690;2024-01-15T12:29:46;6.10;;;2.20;;
68608;SDS011;55581;46.718;7.690;2024-01-15T12:32:14;6.82;;;2.53;;
68608;SDS011;55581;46.718;7.690;2024-01-15T12:34:39;5.60;;;1.90;;
68608;SDS011;55581;46.718;7.690;2024-01-15T12:37:06;6.97;;;2.50;;
68608;SDS011;55581;46.718;7.690;2024-01-15T12:39:33;7.30;;;2.33;;
68608;SDS011;55581;46.718;7.690;2024-01-15T12:42:00;5.50;;;2.55;;
68608;SDS011;55581;46.718;7.690;2024-01-15T12:44:26;8.13;;;2.40;;
68608;SDS011;55581;46.718;7.690;2024-01-15T12:46:53;7.30;;;2.38;;
68608;SDS011;55581;46.718;7.690;2024-01-15T12:49:21;7.97;;;2.50;;
68608;SDS011;55581;46.718;7.690;2024-01-15T12:51:56;7.23;;;2.10;;
68608;SDS011;55581;46.718;7.690;2024-01-15T12:54:22;6.68;;;2.30;;
68608;SDS011;55581;46.718;7.690;2024-01-15T12:56:49;7.75;;;2.10;;
68608;SDS011;55581;46.718;7.690;2024-01-15T12:59:15;6.38;;;2.08;;
68608;SDS011;55581;46.718;7.690;2024-01-15T13:01:41;5.00;;;2.03;;
68608;SDS011;55581;46.718;7.690;2024-01-15T13:04:06;7.60;;;2.37;;
68608;SDS011;55581;46.718;7.690;2024-01-15T13:06:33;5.35;;;2.22;;
68608;SDS011;55581;46.718;7.690;2024-01-15T13:09:02;6.13;;;2.33;;
68608;SDS011;55581;46.718;7.690;2024-01-15T13:11:30;6.93;;;2.00;;
68608;SDS011;55581;46.718;7.690;2024-01-15T13:13:56;6.28;;;2.33;;
68608;SDS011;55581;46.718;7.690;2024-01-15T13:16:22;7.27;;;2.37;;
68608;SDS011;55581;46.718;7.690;2024-01-15T13:18:47;5.97;;;2.03;;
68608;SDS011;55581;46.718;7.690;2024-01-15T13:21:14;5.45;;;2.55;;
68608;SDS011;55581;46.718;7.690;2024-01-15T13:23:40;6.15;;;2.20;;
68608;SDS011;55581;46.718;7.690;2024-01-15T13:26:05;10.97;;;3.43;;
68608;SDS011;55581;46.718;7.690;2024-01-15T13:28:32;6.68;;;2.53;;
68608;SDS011;55581;46.718;7.690;2024-01-15T13:31:00;6.03;;;2.00;;
68608;SDS011;55581;46.718;7.690;2024-01-15T13:33:27;5.23;;;1.50;;
68608;SDS011;55581;46.718;7.690;2024-01-15T13:35:53;4.57;;;1.23;;
68608;SDS011;55581;46.718;7.690;2024-01-15T13:38:18;4.87;;;1.00;;
68608;SDS011;55581;46.718;7.690;2024-01-15T13:40:44;3.70;;;1.20;;
68608;SDS011;55581;46.718;7.690;2024-01-15T13:43:12;4.15;;;1.10;;
68608;SDS011;55581;46.718;7.690;2024-01-15T13:45:41;2.78;;;0.70;;
68608;SDS011;55581;46.718;7.690;2024-01-15T13:48:09;4.47;;;1.07;;
68608;SDS011;55581;46.718;7.690;2024-01-15T13:50:36;4.05;;;1.05;;
68608;SDS011;55581;46.718;7.690;2024-01-15T13:53:04;3.58;;;1.13;;
68608;SDS011;55581;46.718;7.690;2024-01-15T13:55:30;3.53;;;0.88;;
68608;SDS011;55581;46.718;7.690;2024-01-15T13:57:55;4.13;;;1.03;;
68608;SDS011;55581;46.718;7.690;2024-01-15T14:00:21;4.17;;;0.90;;
68608;SDS011;55581;46.718;7.690;2024-01-15T14:02:48;4.50;;;1.38;;
68608;SDS011;55581;46.718;7.690;2024-01-15T14:05:16;3.80;;;1.15;;
68608;SDS011;55581;46.718;7.690;2024-01-15T14:07:44;5.87;;;1.67;;
68608;SDS011;55581;46.718;7.690;2024-01-15T14:10:09;4.70;;;1.40;;
68608;SDS011;55581;46.718;7.690;2024-01-15T14:12:35;4.73;;;1.77;;
68608;SDS011;55581;46.718;7.690;2024-01-15T14:15:01;5.10;;;1.30;;
68608;SDS011;55581;46.718;7.690;2024-01-15T14:17:30;4.88;;;1.67;;
68608;SDS011;55581;46.718;7.690;2024-01-15T14:19:55;5.20;;;1.70;;
68608;SDS011;55581;46.718;7.690;2024-01-15T14:22:23;4.85;;;1.45;;
68608;SDS011;55581;46.718;7.690;2024-01-15T14:24:49;6.53;;;1.53;;
68608;SDS011;55581;46.718;7.690;2024-01-15T14:27:14;4.68;;;1.27;;
68608;SDS011;55581;46.718;7.690;2024-01-15T14:29:40;6.03;;;1.70;;
68608;SDS011;55581;46.718;7.690;2024-01-15T14:32:06;4.57;;;1.30;;
68608;SDS011;55581;46.718;7.690;2024-01-15T14:34:31;4.23;;;1.20;;
68608;SDS011;55581;46.718;7.690;2024-01-15T14:36:57;4.73;;;1.50;;
68608;SDS011;55581;46.718;7.690;2024-01-15T14:39:24;5.30;;;1.45;;
68608;SDS011;55581;46.718;7.690;2024-01-15T14:41:53;5.40;;;1.10;;
68608;SDS011;55581;46.718;7.690;2024-01-15T14:44:18;8.07;;;1.47;;
68608;SDS011;55581;46.718;7.690;2024-01-15T14:46:46;4.40;;;1.15;;
68608;SDS011;55581;46.718;7.690;2024-01-15T14:49:11;3.00;;;0.90;;
68608;SDS011;55581;46.718;7.690;2024-01-15T14:51:39;3.78;;;0.98;;
68608;SDS011;55581;46.718;7.690;2024-01-15T14:54:05;5.13;;;1.53;;
68608;SDS011;55581;46.718;7.690;2024-01-15T14:56:30;2.97;;;0.73;;
68608;SDS011;55581;46.718;7.690;2024-01-15T14:58:56;4.05;;;1.08;;